»·PEaware :: SKY74 KDLS-KMMV

SKY74 :: KDLS-KMMV

FLIGHT INFORMATION

Flight Status: Arrived
Operator:
Sky High Charters
More flights by this operator :: More flights under this callsign
Pilot: Charles C. (26995)
Aircraft: MCDONNELL-DOUGLAS SKYTRAIN C-47
(DC3)
More flights by this aircraft type
Origin: KDLS Columbia Gorge Regl/The Dalle
United States
Destination: KMMV McMinnville Mun
United States
More flights between these airports :: More routes between these airports
Route: DALLS1 LTJ V112 BTG V287 UBG
File this flight plan on PilotEdge
Remarks:
Altitude:
(Current/Filed)
8,000ft
Speed:
(Current/Filed)
150kts
Departed: 25-Aug-20 09:14 AM
Arrived: 25-Aug-20 10:09 AM
Distance/Time
Traveled:
87nm/0:55
Distance/Time
To Go:
Arrived

Flight Plot

Page will automatically refresh every two minutes.

Flight plan parsing failed; only flown route is shown


Map Options




Map Legend


Flown Route
Filed Route
Departure Airport
Arrival Airport
Navaid (VOR, NDB)
Fix

Horizontal Profiles

Position Reports

Time Latitude Longitude Heading Altitude Ground
Speed
25-Aug-20 09:09 45.618777 -121.173136 106 228ft 0kts
25-Aug-20 09:10 45.618777 -121.173136 106 228ft 0kts
25-Aug-20 09:11 45.619292 -121.174307 269 226ft 15kts
25-Aug-20 09:12 45.621347 -121.177183 49 218ft 14kts
25-Aug-20 09:13 45.622379 -121.172325 148 218ft 14kts
25-Aug-20 09:14 45.600889 -121.151101 146 673ft 113kts
25-Aug-20 09:15 45.577261 -121.126135 145 1405ft 106kts
25-Aug-20 09:16 45.552663 -121.105343 182 2046ft 108kts
25-Aug-20 09:17 45.522696 -121.110930 176 2659ft 107kts
25-Aug-20 09:18 45.493897 -121.101239 170 3262ft 111kts
25-Aug-20 09:19 45.462968 -121.099086 184 3954ft 120kts
25-Aug-20 09:20 45.469051 -121.083360 346 4645ft 117kts
25-Aug-20 09:21 45.500673 -121.089754 359 5309ft 120kts
25-Aug-20 09:22 45.533010 -121.096212 346 5960ft 121kts
25-Aug-20 09:23 45.564276 -121.095476 2 6706ft 113kts
25-Aug-20 09:23 45.591005 -121.095037 0 7229ft 119kts
25-Aug-20 09:25 45.631157 -121.096315 358 7925ft 125kts
25-Aug-20 09:26 45.670730 -121.098200 358 8004ft 160kts
25-Aug-20 09:26 45.708122 -121.105465 316 7996ft 166kts
25-Aug-20 09:28 45.715830 -121.180252 273 7998ft 164kts
25-Aug-20 09:28 45.717601 -121.233985 272 7997ft 165kts
25-Aug-20 09:29 45.719541 -121.300142 272 7997ft 166kts
25-Aug-20 09:30 45.721398 -121.366311 272 7997ft 166kts
25-Aug-20 09:31 45.723207 -121.432393 272 7997ft 166kts
25-Aug-20 09:32 45.724983 -121.498674 272 7997ft 166kts
25-Aug-20 09:33 45.726719 -121.564923 272 7997ft 166kts
25-Aug-20 09:34 45.728417 -121.631160 272 7997ft 166kts
25-Aug-20 09:35 45.730075 -121.697608 272 8000ft 166kts
25-Aug-20 09:36 45.731675 -121.763872 273 8023ft 165kts
25-Aug-20 09:37 45.733259 -121.829521 273 8046ft 163kts
25-Aug-20 09:38 45.734804 -121.893968 272 8068ft 159kts
25-Aug-20 09:39 45.736225 -121.956908 271 8079ft 155kts
25-Aug-20 09:40 45.737573 -122.018917 271 8079ft 155kts
25-Aug-20 09:41 45.738896 -122.080644 271 8079ft 154kts
25-Aug-20 09:42 45.740192 -122.142458 271 8079ft 154kts
25-Aug-20 09:43 45.741422 -122.204016 272 8079ft 155kts
25-Aug-20 09:44 45.742673 -122.266319 273 8078ft 157kts
25-Aug-20 09:45 45.744338 -122.329966 273 8079ft 161kts
25-Aug-20 09:46 45.745574 -122.394906 271 8078ft 164kts
25-Aug-20 09:47 45.746622 -122.460647 271 8048ft 168kts
25-Aug-20 09:48 45.747656 -122.527697 272 8008ft 167kts
25-Aug-20 09:49 45.743528 -122.592033 223 8012ft 167kts
25-Aug-20 09:50 45.702696 -122.623930 207 8016ft 168kts
25-Aug-20 09:51 45.661459 -122.653273 206 8011ft 157kts
25-Aug-20 09:52 45.622713 -122.680516 206 7686ft 164kts
25-Aug-20 09:53 45.579511 -122.710701 205 6944ft 180kts
25-Aug-20 09:54 45.531511 -122.743707 206 5736ft 198kts
25-Aug-20 09:55 45.482737 -122.777698 206 4839ft 190kts
25-Aug-20 09:56 45.437432 -122.809221 205 4286ft 165kts
25-Aug-20 09:57 45.397988 -122.836624 205 3773ft 157kts
25-Aug-20 09:58 45.360591 -122.861646 193 2958ft 140kts
25-Aug-20 09:59 45.328910 -122.879526 198 3005ft 97kts
25-Aug-20 10:00 45.304039 -122.900701 231 2980ft 111kts
25-Aug-20 10:01 45.286387 -122.938523 236 2603ft 111kts
25-Aug-20 10:02 45.270042 -122.974698 244 2513ft 106kts
25-Aug-20 10:03 45.256765 -123.007609 211 2405ft 93kts
25-Aug-20 10:04 45.242522 -123.036265 246 1659ft 84kts
25-Aug-20 10:05 45.229573 -123.063560 232 1253ft 82kts
25-Aug-20 10:06 45.217203 -123.091641 232 859ft 87kts
25-Aug-20 10:07 45.203822 -123.121309 239 351ft 87kts
25-Aug-20 10:08 45.195190 -123.140674 236 165ft 26kts
25-Aug-20 10:09 45.196643 -123.140327 56 165ft 26kts
25-Aug-20 10:10 45.198009 -123.139311 79 165ft 0kts
25-Aug-20 10:11 45.198009 -123.139311 79 165ft 0kts
25-Aug-20 10:12 45.198009 -123.139311 79 165ft 0kts
25-Aug-20 10:13 45.198009 -123.139311 79 165ft 0kts
25-Aug-20 10:14 45.198009 -123.139311 79 165ft 0kts
25-Aug-20 10:15 45.198009 -123.139311 79 165ft 0kts
25-Aug-20 10:16 45.198009 -123.139311 79 165ft 0kts
25-Aug-20 10:17 45.198009 -123.139311 79 165ft 0kts
25-Aug-20 10:18 45.198009 -123.139311 79 165ft 0kts
25-Aug-20 10:19 45.198009 -123.139311 79 165ft 0kts
25-Aug-20 10:20 45.198009 -123.139311 79 165ft 0kts

Navigation Log

Ident Type
Flight plan parsing failed, navigation log unavailable